Rickenbacker International (LCK)

 

Airport Diagram
Current Weather/Forecast (MVFR Conditions)
METAR KLCK 071155Z AUTO 31011G15KT 10SM OVC015 07/05 A2996 RMK AO2 T00720052 10086 20071
TAF KLCK 071123Z 0712/0812 33011KT P6SM BKN035 TEMPO 0712/0714 BKN015 FM071400 32010KT P6SM SCT025 FM071800 30011G18KT P6SM SCT045 FM072100 29011G18KT P6SM VCTS BKN045CB FM080100 29010KT P6SM BKN050 FM080800 31010KT P6SM BKN025

Airport Information

All Charts
General
Chart Name View
AIRPORT DIAGRAM
ALTERNATE MINIMUMS

Departures
Chart Name Download
LOCKBOURNE FIVE

Arrivals
Chart Name Download
BREMN FIVE
BREMN FIVE, CONT.1
GAILL THREE (RNAV)
GUNNE FOUR
GUNNE FOUR, CONT.1

Approaches
Chart Name Download
ILS OR LOC RWY 05L
ILS OR LOC RWY 05R
ILS OR LOC RWY 23L
ILS RWY 05R (SA CAT I)
ILS RWY 05R (CAT II)
RNAV (GPS) RWY 05L
RNAV (GPS) RWY 05R
RNAV (GPS) RWY 23L
RNAV (GPS) RWY 23R


Airport Statistics
Departures Arrivals Local
All Collected Stats since June 2016: 250 252 14
2021 Stats: 66 92 0
May Stats: 4 8 0

Inbound Traffic (Arrivals) - 0

No inbound traffic.


Outbound Traffic (Departures) - 0

No outbound traffic.


Local Traffic (Pattern) - 0

No local traffic.